Flight Track Log - Related Links

Times and Time Zones

All times are in EDT time to prevent confusion due to time zone crossing. See the N440CT flight status page for this flight to view local times or setup timezone preferences in your user account.

Time Position Orientation Groundspeed Altitude Reporting Facility
EDT Latitude Longitude Course Direction KTS MPH feet Rate Location/Type
Fri 10:07:06 AM 41.0333 -73.7167 315° West 183 211 2,000  Level New York TRACON
Fri 10:08:06 AM 41.0833 -73.7833 252° West 214 246 3,900 2,300 Climbing New York TRACON
Fri 10:09:06 AM 41.0667 -73.8500 246° West 245 282 6,600 2,000 Climbing New York TRACON
Fri 10:10:06 AM 41.0333 -73.9500 242° Southwest 254 292 7,900 1,950 Climbing New York TRACON
Fri 10:11:06 AM 41.0000 -74.0333 242° Southwest 261 300 10,500 2,600 Climbing New York TRACON
Fri 10:12:06 AM 40.9667 -74.1167 258° West 274 315 13,100 2,450 Climbing New York TRACON
Fri 10:13:06 AM 40.9500 -74.2167 246° West 281 323 15,400 2,000 Climbing New York TRACON
Fri 10:14:06 AM 40.9167 -74.3167 248° West 293 337 17,100 524 Climbing New York TRACON
Fri 10:16:32 AM 40.8381 -74.5672 245° Southwest 311 358 17,200 466 Climbing New York Center
Fri 10:17:32 AM 40.8058 -74.6586 242° Southwest 311 358 18,700 1,525 Climbing New York Center
Fri 10:18:34 AM 40.7606 -74.7708 242° Southwest 316 364 20,300 1,550 Climbing New York Center
Fri 10:19:32 AM 40.7172 -74.8781 242° Southwest 321 369 21,800 1,475 Climbing New York Center
Fri 10:20:32 AM 40.6739 -74.9847 241° Southwest 326 375 23,200 1,388 Climbing New York Center
Fri 10:21:33 AM 40.6261 -75.0967 242° Southwest 333 383 24,600 1,261 Climbing New York Center
Fri 10:22:31 AM 40.5803 -75.2086 241° Southwest 345 397 25,700 1,119 Climbing New York Center
Fri 10:23:31 AM 40.5322 -75.3228 242° Southwest 351 404 26,800 1,091 Climbing New York Center
Fri 10:24:32 AM 40.4836 -75.4453 239° Southwest 367 422 27,900 1,140 Climbing New York Center
Fri 10:25:32 AM 40.4264 -75.5722 241° Southwest 390 449 29,100 1,033 Climbing New York Center
Fri 10:26:34 AM 40.3803 -75.6833 240° Southwest 390 449 30,000 1,000 Climbing New York Center
Fri 10:27:32 AM 40.3225 -75.8156 240° Southwest 390 449 31,100 1,008 Climbing New York Center
Fri 10:28:33 AM 40.2739 -75.9261 242° Southwest 390 449 32,000 958 Climbing New York Center
Fri 10:29:31 AM 40.2178 -76.0633 241° Southwest 390 449 33,000 908 Climbing New York Center
Fri 10:30:32 AM 40.1711 -76.1739 243° Southwest 390 449 33,800 787 Climbing New York Center
Fri 10:31:33 AM 40.1214 -76.3006 238° Southwest 396 456 34,600 951 Climbing New York Center
Fri 10:33:35 AM 40.0014 -76.5531 238° Southwest 366 421 36,700 989 Climbing Washington Center
Fri 10:34:35 AM 39.9464 -76.6658 239° Southwest 371 427 37,600 814 Climbing Washington Center
Fri 10:35:33 AM 39.8997 -76.7681 239° Southwest 376 433 38,300 661 Climbing Washington Center
Fri 10:36:33 AM 39.8464 -76.8833 239° Southwest 376 433 38,900 550 Climbing Washington Center
Fri 10:37:33 AM 39.7867 -77.0119 238° Southwest 386 444 39,400 496 Climbing Washington Center
Fri 10:38:34 AM 39.7308 -77.1294 238° Southwest 386 444 39,900 298 Climbing Washington Center
Fri 10:39:34 AM 39.6753 -77.2442 239° Southwest 386 444 40,000 50 Climbing Washington Center
Fri 10:40:35 AM 39.6172 -77.3694 238° Southwest 386 444 40,000  Level Washington Center
Fri 10:41:35 AM 39.5592 -77.4919 239° Southwest 391 450 40,000  Level Washington Center
Fri 10:42:33 AM 39.4986 -77.6219 238° Southwest 412 474 40,000  Level Washington Center
Fri 10:43:33 AM 39.4358 -77.7519 238° Southwest 417 480 40,000  Level Washington Center
Fri 10:44:34 AM 39.3753 -77.8764 243° Southwest 423 487 40,000  Level Washington Center
Fri 10:45:34 AM 39.3247 -78.0061 244° Southwest 423 487 40,000  Level Washington Center
Fri 10:46:35 AM 39.2742 -78.1386 253° West 408 470 40,000  Level Washington Center
Fri 10:47:33 AM 39.2419 -78.2742 254° West 403 464 40,000  Level Washington Center
Fri 10:48:33 AM 39.2142 -78.3992 252° West 403 464 40,000  Level Washington Center
Fri 10:49:34 AM 39.1797 -78.5369 253° West 403 464 40,000  Level Washington Center
Fri 10:50:35 AM 39.1469 -78.6750 252° West 403 464 40,000  Level Washington Center
Fri 10:51:35 AM 39.1122 -78.8125 253° West 403 464 40,000  Level Washington Center
Fri 10:52:32 AM 39.0792 -78.9528 252° West 408 470 40,000  Level Washington Center
Fri 10:53:33 AM 39.0439 -79.0903 253° West 408 470 40,000  Level Washington Center
Fri 10:54:33 AM 39.0106 -79.2303 252° West 408 470 40,000  Level Washington Center
Fri 10:55:35 AM 38.9750 -79.3672 251° West 408 470 40,000  Level Washington Center
Fri 10:56:35 AM 38.9372 -79.5067 256° West 413 475 40,000  Level Washington Center
Fri 10:57:33 AM 38.9069 -79.6653 252° West 418 481 40,000  Level Washington Center
Fri 10:58:33 AM 38.8731 -79.8019 252° West 413 475 40,000  Level Washington Center
Fri 10:59:35 AM 38.8417 -79.9228 251° West 407 468 40,000  Level Washington Center
Fri 11:01:59 AM 38.7517 -80.2550 252° West 382 440 40,000  Level Indianapolis Center
Fri 11:02:59 AM 38.7178 -80.3894 252° West 394 453 40,000  Level Indianapolis Center
Fri 11:03:59 AM 38.6836 -80.5214 251° West 394 453 40,000  Level Indianapolis Center
Fri 11:04:59 AM 38.6494 -80.6506 252° West 394 453 40,000  Level Indianapolis Center
Fri 11:05:59 AM 38.6150 -80.7822 251° West 389 448 40,000  Level Indianapolis Center
Fri 11:06:59 AM 38.5786 -80.9139 251° West 389 448 40,000  Level Indianapolis Center
Fri 11:07:59 AM 38.5439 -81.0450 251° West 389 448 40,000  Level Indianapolis Center
Fri 11:08:59 AM 38.5069 -81.1792 251° West 389 448 40,000 -150 Level Indianapolis Center
Fri 11:09:59 AM 38.4700 -81.3128 251° West 394 453 39,700 -650 Descending Indianapolis Center
Fri 11:10:59 AM 38.4328 -81.4519 251° West 400 460 38,700 -850 Descending Indianapolis Center
Fri 11:11:59 AM 38.3975 -81.5803 252° West 413 475 38,000 -350 Descending Indianapolis Center
Fri 11:12:59 AM 38.3622 -81.7189 250° West 419 482 38,000 -150 Level Indianapolis Center
Fri 11:13:59 AM 38.3228 -81.8603 252° West 424 488 37,700 -650 Descending Indianapolis Center
Fri 11:14:59 AM 38.2892 -81.9933 249° West 419 482 36,700 -1,050 Descending Indianapolis Center
Fri 11:15:59 AM 38.2492 -82.1264 251° West 414 476 35,600 -850 Descending Indianapolis Center
Fri 11:16:59 AM 38.2131 -82.2592 250° West 407 468 35,000 -300 Descending Indianapolis Center
Fri 11:17:59 AM 38.1747 -82.3919 251° West 407 468 35,000  Level Indianapolis Center
Fri 11:18:59 AM 38.1344 -82.5406 250° West 407 468 35,000 -500 Level Indianapolis Center
Fri 11:19:59 AM 38.0939 -82.6783 250° West 407 468 34,000 -1,200 Descending Indianapolis Center
Fri 11:20:59 AM 38.0572 -82.8078 250° West 407 468 32,600 -1,000 Descending Indianapolis Center
Fri 11:21:59 AM 38.0183 -82.9400 249° West 407 468 32,000 -300 Descending Indianapolis Center
Fri 11:22:59 AM 37.9794 -83.0694 250° West 407 468 32,000  Level Indianapolis Center
Fri 11:23:59 AM 37.9422 -83.1989 249° West 402 463 32,000  Level Indianapolis Center
Fri 11:24:59 AM 37.9031 -83.3306 249° West 402 463 32,000 -150 Level Indianapolis Center
Fri 11:25:59 AM 37.8636 -83.4622 250° West 402 463 31,700 -650 Descending Indianapolis Center
Fri 11:26:59 AM 37.8239 -83.5992 249° West 412 474 30,700 -1,000 Descending Indianapolis Center
Fri 11:27:59 AM 37.7800 -83.7408 250° West 430 495 29,700 -1,050 Descending Indianapolis Center
Fri 11:28:59 AM 37.7378 -83.8853 250° West 435 501 28,600 -1,100 Descending Indianapolis Center
Fri 11:29:59 AM 37.6958 -84.0269 248° West 435 501 27,500 -1,050 Descending Indianapolis Center
Fri 11:30:59 AM 37.6533 -84.1603 250° West 429 494 26,500 -1,000 Descending Indianapolis Center
Fri 11:31:59 AM 37.6150 -84.2911 241° Southwest 417 480 25,500 -1,050 Descending Indianapolis Center
Fri 11:32:59 AM 37.5686 -84.3981 228° Southwest 378 435 24,400 -1,150 Descending Indianapolis Center
Fri 11:33:59 AM 37.5031 -84.4889 227° Southwest 354 407 23,200 -1,600 Descending Indianapolis Center
Fri 11:34:59 AM 37.4397 -84.5744 238° Southwest 346 398 21,200 -1,950 Descending Indianapolis Center
Fri 11:35:59 AM 37.3953 -84.6656 280° West 334 384 19,300 -2,300 Descending Indianapolis Center
Fri 11:36:59 AM 37.4089 -84.7675 331° Northwest 291 335 16,600 -2,650 Descending Indianapolis Center
Fri 11:37:59 AM 37.4814 -84.8186 327° Northwest 294 338 14,000 -2,200 Descending Indianapolis Center
Fri 11:38:59 AM 37.5475 -84.8719 328° Northwest 298 343 12,200 -1,500 Descending Indianapolis Center
Fri 11:39:59 AM 37.6094 -84.9203 323° Northwest 273 314 11,000 -600 Descending Indianapolis Center
Fri 11:40:59 AM 37.6714 -84.9792 314° West 273 314 11,000 -200 Level Indianapolis Center
Fri 11:41:59 AM 37.7267 -85.0511 310° West 278 320 10,600 -500 Descending Indianapolis Center
Fri 11:42:59 AM 37.7739 -85.1231 315° West 278 320 10,000 -300 Descending Indianapolis Center
Fri 11:43:59 AM 37.8272 -85.1900 283° West 273 314 10,000 -450 Level Indianapolis Center
Fri 11:44:59 AM 37.8444 -85.2850 276° West 273 314 9,100 -1,261 Descending Indianapolis Center
Fri 11:45:58 AM 37.8514 -85.3761 278° West 266 306 7,500 -1,515 Descending FAA TRACON SMA TRACON (SMA)
Fri 11:46:38 AM 37.8581 -85.4328 322° Northwest 266 306 6,600 -1,084 Descending FAA TRACON SMA TRACON (SMA)
Fri 11:47:21 AM 37.9019 -85.4761 330° Northwest 263 303 6,000 -450 Descending FAA TRACON SMA TRACON (SMA)
Fri 11:47:58 AM 37.9400 -85.5039 331° Northwest 256 295 6,000  Level FAA TRACON SMA TRACON (SMA)
Fri 11:48:38 AM 37.9844 -85.5356 337° Northwest 267 307 6,000  Level FAA TRACON SMA TRACON (SMA)
Fri 11:49:38 AM 38.0531 -85.5731 342° North 268 308 6,000  Level FAA TRACON SMA TRACON (SMA)
Fri 11:50:18 AM 38.0958 -85.5911 350° North 264 304 6,000  Level FAA TRACON SMA TRACON (SMA)
Fri 11:50:58 AM 38.1458 -85.6025 353° North 264 304 6,000  Level FAA TRACON SMA TRACON (SMA)
Fri 11:51:39 AM 38.1961 -85.6103 352° North 263 303 6,000 -150 Level FAA TRACON SMA TRACON (SMA)
Fri 11:52:18 AM 38.2408 -85.6181 351° North 264 304 5,800 -684 Descending FAA TRACON SMA TRACON (SMA)
Fri 11:52:58 AM 38.2903 -85.6275 353° North 256 295 5,100 -600 Descending FAA TRACON SMA TRACON (SMA)
Fri 11:53:38 AM 38.3319 -85.6339 354° North 211 243 5,000 -600 Descending FAA TRACON SMA TRACON (SMA)
Fri 11:54:18 AM 38.3686 -85.6386 340° North 187 215 4,300 -741 Descending FAA TRACON SMA TRACON (SMA)
Fri 11:54:59 AM 38.3961 -85.6514 263° West 187 215 4,000 -225 Descending FAA TRACON SMA TRACON (SMA)
Fri 11:55:38 AM 38.3922 -85.6933 258° West 177 204 4,000  Level FAA TRACON SMA TRACON (SMA)
Fri 11:56:18 AM 38.3850 -85.7353 252° West 174 200 4,000  Level FAA TRACON SMA TRACON (SMA)
Fri 11:56:58 AM 38.3761 -85.7708 191° South 178 205 4,000 -150 Level FAA TRACON SMA TRACON (SMA)
Fri 11:57:38 AM 38.3422 -85.7792 170° South 183 211 3,800 -815 Descending FAA TRACON SMA TRACON (SMA)
Fri 11:58:19 AM 38.3072 -85.7717 166° South 182 209 2,900 -1,050 Descending FAA TRACON SMA TRACON (SMA)
Fri 11:58:58 AM 38.2794 -85.7631 166° South 166 191 2,400 -769 Descending FAA TRACON SMA TRACON (SMA)

Login

Don't have an account? Register now (free) for customized features, flight alerts, and more!